sensor_id;sensor_type;location;lat;lon;timestamp;pressure;altitude;pressure_sealevel;temperature;humidity
33554;BME280;19885;42.208;24.952;2023-03-13T00:03:46;100190.16;;;6.48;65.67
33554;BME280;19885;42.208;24.952;2023-03-13T00:06:15;100233.09;;;6.72;65.77
33554;BME280;19885;42.208;24.952;2023-03-13T00:08:41;100226.94;;;6.68;65.53
33554;BME280;19885;42.208;24.952;2023-03-13T00:11:09;100211.34;;;6.65;64.49
33554;BME280;19885;42.208;24.952;2023-03-13T00:13:35;100213.00;;;6.63;65.08
33554;BME280;19885;42.208;24.952;2023-03-13T00:16:08;100232.91;;;6.66;64.78
33554;BME280;19885;42.208;24.952;2023-03-13T00:18:35;100239.47;;;6.53;63.71
33554;BME280;19885;42.208;24.952;2023-03-13T00:21:05;100236.78;;;6.50;64.53
33554;BME280;19885;42.208;24.952;2023-03-13T00:23:32;100232.59;;;6.54;63.65
33554;BME280;19885;42.208;24.952;2023-03-13T00:25:58;100235.09;;;6.52;64.90
33554;BME280;19885;42.208;24.952;2023-03-13T00:28:26;100231.53;;;6.47;64.67
33554;BME280;19885;42.208;24.952;2023-03-13T00:33:41;100241.53;;;6.35;65.56
33554;BME280;19885;42.208;24.952;2023-03-13T00:36:10;100240.50;;;6.30;65.47
33554;BME280;19885;42.208;24.952;2023-03-13T00:38:36;100236.72;;;6.19;65.49
33554;BME280;19885;42.208;24.952;2023-03-13T00:41:06;100241.78;;;6.16;65.83
33554;BME280;19885;42.208;24.952;2023-03-13T00:43:33;100238.94;;;6.07;66.02
33554;BME280;19885;42.208;24.952;2023-03-13T00:45:59;100235.13;;;5.96;66.24
33554;BME280;19885;42.208;24.952;2023-03-13T00:48:25;100238.91;;;5.78;66.50
33554;BME280;19885;42.208;24.952;2023-03-13T00:50:51;100236.59;;;5.61;66.83
33554;BME280;19885;42.208;24.952;2023-03-13T00:53:17;100240.91;;;5.60;67.29
33554;BME280;19885;42.208;24.952;2023-03-13T00:58:18;100242.44;;;5.55;68.13
33554;BME280;19885;42.208;24.952;2023-03-13T01:00:44;100248.34;;;5.51;68.36
33554;BME280;19885;42.208;24.952;2023-03-13T01:03:09;100239.72;;;5.51;69.21
33554;BME280;19885;42.208;24.952;2023-03-13T01:05:34;100230.00;;;5.44;70.05
33554;BME280;19885;42.208;24.952;2023-03-13T01:08:00;100236.66;;;5.37;70.04
33554;BME280;19885;42.208;24.952;2023-03-13T01:10:25;100241.84;;;5.37;70.88
33554;BME280;19885;42.208;24.952;2023-03-13T01:12:51;100236.31;;;5.27;69.77
33554;BME280;19885;42.208;24.952;2023-03-13T01:15:16;100240.34;;;5.19;69.95
33554;BME280;19885;42.208;24.952;2023-03-13T01:17:44;100244.16;;;5.30;69.83
33554;BME280;19885;42.208;24.952;2023-03-13T01:20:11;100231.25;;;5.30;70.27
33554;BME280;19885;42.208;24.952;2023-03-13T01:22:36;100241.84;;;5.37;69.21
33554;BME280;19885;42.208;24.952;2023-03-13T01:25:02;100188.22;;;5.05;69.26
33554;BME280;19885;42.208;24.952;2023-03-13T01:27:28;100246.03;;;5.34;69.32
33554;BME280;19885;42.208;24.952;2023-03-13T01:29:54;100252.84;;;5.32;68.73
33554;BME280;19885;42.208;24.952;2023-03-13T01:32:20;100243.19;;;5.26;68.75
33554;BME280;19885;42.208;24.952;2023-03-13T01:34:45;100245.22;;;5.36;70.13
33554;BME280;19885;42.208;24.952;2023-03-13T01:37:10;100243.38;;;5.32;69.86
33554;BME280;19885;42.208;24.952;2023-03-13T01:39:36;100252.91;;;5.33;69.26
33554;BME280;19885;42.208;24.952;2023-03-13T01:42:03;100257.34;;;5.37;70.45
33554;BME280;19885;42.208;24.952;2023-03-13T01:44:29;100255.22;;;5.26;68.28
33554;BME280;19885;42.208;24.952;2023-03-13T01:46:54;100264.06;;;5.32;68.42
33554;BME280;19885;42.208;24.952;2023-03-13T01:49:23;100262.31;;;5.31;68.74
33554;BME280;19885;42.208;24.952;2023-03-13T01:51:53;100266.59;;;5.31;68.83
33554;BME280;19885;42.208;24.952;2023-03-13T01:54:27;100279.34;;;5.26;67.38
33554;BME280;19885;42.208;24.952;2023-03-13T01:59:58;100285.34;;;5.25;66.03
33554;BME280;19885;42.208;24.952;2023-03-13T02:02:27;100286.19;;;5.24;66.95
33554;BME280;19885;42.208;24.952;2023-03-13T02:04:56;100274.03;;;5.22;65.68
33554;BME280;19885;42.208;24.952;2023-03-13T02:07:33;100284.41;;;5.23;65.67
33554;BME280;19885;42.208;24.952;2023-03-13T02:10:01;100268.38;;;5.08;65.27
33554;BME280;19885;42.208;24.952;2023-03-13T02:12:30;100293.44;;;5.11;64.98
33554;BME280;19885;42.208;24.952;2023-03-13T02:14:57;100295.00;;;5.05;65.45
33554;BME280;19885;42.208;24.952;2023-03-13T02:17:24;100300.78;;;5.00;65.46
33554;BME280;19885;42.208;24.952;2023-03-13T02:19:50;100306.69;;;4.96;66.41
33554;BME280;19885;42.208;24.952;2023-03-13T02:28:15;100313.59;;;4.73;67.25
33554;BME280;19885;42.208;24.952;2023-03-13T02:30:43;100312.44;;;4.65;67.30
33554;BME280;19885;42.208;24.952;2023-03-13T02:33:10;100292.22;;;4.54;67.68
33554;BME280;19885;42.208;24.952;2023-03-13T02:35:36;100316.69;;;4.63;66.54
33554;BME280;19885;42.208;24.952;2023-03-13T02:38:05;100312.03;;;4.55;66.24
33554;BME280;19885;42.208;24.952;2023-03-13T02:40:35;100314.72;;;4.58;66.38
33554;BME280;19885;42.208;24.952;2023-03-13T02:43:07;100337.72;;;4.74;66.41
33554;BME280;19885;42.208;24.952;2023-03-13T02:45:33;100344.56;;;4.73;67.25
33554;BME280;19885;42.208;24.952;2023-03-13T02:47:59;100325.06;;;4.58;66.20
33554;BME280;19885;42.208;24.952;2023-03-13T02:50:24;100348.28;;;4.58;66.38
33554;BME280;19885;42.208;24.952;2023-03-13T02:52:54;100356.47;;;4.48;67.43
33554;BME280;19885;42.208;24.952;2023-03-13T02:55:30;100360.59;;;4.43;68.42
33554;BME280;19885;42.208;24.952;2023-03-13T02:57:56;100352.19;;;4.26;68.91
33554;BME280;19885;42.208;24.952;2023-03-13T03:00:22;100366.06;;;4.29;68.50
33554;BME280;19885;42.208;24.952;2023-03-13T03:02:51;100354.38;;;4.15;69.10
33554;BME280;19885;42.208;24.952;2023-03-13T03:05:18;100362.75;;;4.11;69.09
33554;BME280;19885;42.208;24.952;2023-03-13T03:07:44;100361.53;;;4.02;68.69
33554;BME280;19885;42.208;24.952;2023-03-13T03:10:10;100363.56;;;3.88;69.11
33554;BME280;19885;42.208;24.952;2023-03-13T03:12:35;100362.53;;;4.05;69.71
33554;BME280;19885;42.208;24.952;2023-03-13T03:15:02;100362.88;;;3.92;68.95
33554;BME280;19885;42.208;24.952;2023-03-13T03:17:29;100380.81;;;3.91;69.51
33554;BME280;19885;42.208;24.952;2023-03-13T03:19:54;100386.25;;;3.76;69.67
33554;BME280;19885;42.208;24.952;2023-03-13T03:22:20;100377.00;;;3.81;70.45
33554;BME280;19885;42.208;24.952;2023-03-13T03:24:45;100391.22;;;3.92;71.07
33554;BME280;19885;42.208;24.952;2023-03-13T03:27:11;100381.00;;;3.95;71.03
33554;BME280;19885;42.208;24.952;2023-03-13T03:29:36;100401.16;;;4.04;70.45
33554;BME280;19885;42.208;24.952;2023-03-13T03:32:01;100393.09;;;3.96;72.25
33554;BME280;19885;42.208;24.952;2023-03-13T03:34:27;100408.69;;;3.99;72.02
33554;BME280;19885;42.208;24.952;2023-03-13T03:36:53;100412.13;;;4.00;72.21
33554;BME280;19885;42.208;24.952;2023-03-13T03:39:18;100411.84;;;3.92;70.40
33554;BME280;19885;42.208;24.952;2023-03-13T03:41:43;100414.47;;;3.94;71.69
33554;BME280;19885;42.208;24.952;2023-03-13T03:44:09;100423.97;;;3.95;72.03
33554;BME280;19885;42.208;24.952;2023-03-13T03:46:34;100431.38;;;3.87;69.91
33554;BME280;19885;42.208;24.952;2023-03-13T03:49:00;100422.75;;;3.87;70.56
33554;BME280;19885;42.208;24.952;2023-03-13T03:51:25;100428.66;;;3.84;70.10
33554;BME280;19885;42.208;24.952;2023-03-13T03:53:51;100433.91;;;3.86;69.68
33554;BME280;19885;42.208;24.952;2023-03-13T03:56:17;100434.69;;;3.85;69.62
33554;BME280;19885;42.208;24.952;2023-03-13T03:58:42;100441.34;;;3.80;69.00
33554;BME280;19885;42.208;24.952;2023-03-13T04:01:08;100380.72;;;3.48;68.21
33554;BME280;19885;42.208;24.952;2023-03-13T04:03:33;100440.06;;;3.89;68.59
33554;BME280;19885;42.208;24.952;2023-03-13T04:05:59;100432.94;;;3.63;68.76
33554;BME280;19885;42.208;24.952;2023-03-13T04:08:25;100452.31;;;3.74;67.74
33554;BME280;19885;42.208;24.952;2023-03-13T04:10:50;100420.09;;;3.65;67.59
33554;BME280;19885;42.208;24.952;2023-03-13T04:13:16;100459.69;;;3.86;66.87
33554;BME280;19885;42.208;24.952;2023-03-13T04:15:42;100457.44;;;3.74;66.86
33554;BME280;19885;42.208;24.952;2023-03-13T04:18:08;100442.34;;;3.63;67.50
33554;BME280;19885;42.208;24.952;2023-03-13T04:20:34;100472.78;;;3.71;65.70
33554;BME280;19885;42.208;24.952;2023-03-13T04:23:00;100477.53;;;3.62;67.00
33554;BME280;19885;42.208;24.952;2023-03-13T04:25:25;100475.09;;;3.46;67.24
33554;BME280;19885;42.208;24.952;2023-03-13T04:27:53;100477.41;;;3.40;67.54
33554;BME280;19885;42.208;24.952;2023-03-13T04:30:19;100474.81;;;3.40;66.25
33554;BME280;19885;42.208;24.952;2023-03-13T04:32:44;100482.34;;;3.35;66.40
33554;BME280;19885;42.208;24.952;2023-03-13T04:35:10;100486.75;;;3.38;66.71
33554;BME280;19885;42.208;24.952;2023-03-13T04:37:35;100479.88;;;3.19;67.75
33554;BME280;19885;42.208;24.952;2023-03-13T04:40:01;100489.91;;;3.13;67.48
33554;BME280;19885;42.208;24.952;2023-03-13T04:42:26;100494.16;;;3.13;68.49
33554;BME280;19885;42.208;24.952;2023-03-13T04:44:52;100509.69;;;3.14;67.89
33554;BME280;19885;42.208;24.952;2023-03-13T04:47:18;100426.88;;;2.68;68.04
33554;BME280;19885;42.208;24.952;2023-03-13T04:49:43;100499.47;;;3.16;67.90
33554;BME280;19885;42.208;24.952;2023-03-13T04:52:09;100516.66;;;3.17;68.17
33554;BME280;19885;42.208;24.952;2023-03-13T04:54:35;100507.09;;;3.14;68.07
33554;BME280;19885;42.208;24.952;2023-03-13T04:57:04;100521.00;;;3.18;68.13
33554;BME280;19885;42.208;24.952;2023-03-13T04:59:29;100508.72;;;3.12;68.43
33554;BME280;19885;42.208;24.952;2023-03-13T05:01:55;100511.50;;;3.17;67.83
33554;BME280;19885;42.208;24.952;2023-03-13T05:04:24;100515.03;;;3.19;67.95
33554;BME280;19885;42.208;24.952;2023-03-13T05:06:56;100531.38;;;3.19;67.39
33554;BME280;19885;42.208;24.952;2023-03-13T05:09:21;100535.38;;;3.13;67.97
33554;BME280;19885;42.208;24.952;2023-03-13T05:11:47;100512.19;;;3.13;68.10
33554;BME280;19885;42.208;24.952;2023-03-13T05:14:14;100506.09;;;3.11;68.16
33554;BME280;19885;42.208;24.952;2023-03-13T05:16:40;100535.25;;;3.29;66.90
33554;BME280;19885;42.208;24.952;2023-03-13T05:19:06;100545.13;;;3.56;67.32
33554;BME280;19885;42.208;24.952;2023-03-13T05:21:31;100518.75;;;3.81;66.05
33554;BME280;19885;42.208;24.952;2023-03-13T05:23:58;100552.03;;;4.15;65.40
33554;BME280;19885;42.208;24.952;2023-03-13T05:26:23;100548.97;;;4.04;64.33
33554;BME280;19885;42.208;24.952;2023-03-13T05:28:49;100540.53;;;3.88;65.34
33554;BME280;19885;42.208;24.952;2023-03-13T05:31:14;100559.47;;;3.88;65.95
33554;BME280;19885;42.208;24.952;2023-03-13T05:33:40;100563.25;;;3.96;66.88
33554;BME280;19885;42.208;24.952;2023-03-13T05:36:05;100568.00;;;4.06;66.46
33554;BME280;19885;42.208;24.952;2023-03-13T05:38:31;100571.53;;;4.08;66.57
33554;BME280;19885;42.208;24.952;2023-03-13T05:40:56;100560.59;;;3.95;66.69
33554;BME280;19885;42.208;24.952;2023-03-13T05:43:22;100554.41;;;3.91;66.91
33554;BME280;19885;42.208;24.952;2023-03-13T05:45:47;100549.75;;;3.83;66.94
33554;BME280;19885;42.208;24.952;2023-03-13T05:48:13;100579.31;;;3.91;67.34
33554;BME280;19885;42.208;24.952;2023-03-13T05:50:39;100565.47;;;3.89;67.75
33554;BME280;19885;42.208;24.952;2023-03-13T05:53:04;100540.72;;;3.73;68.21
33554;BME280;19885;42.208;24.952;2023-03-13T05:55:30;100503.63;;;3.50;68.03
33554;BME280;19885;42.208;24.952;2023-03-13T05:57:55;100580.41;;;3.96;69.03
33554;BME280;19885;42.208;24.952;2023-03-13T06:00:21;100591.34;;;3.90;68.64
33554;BME280;19885;42.208;24.952;2023-03-13T06:02:46;100583.59;;;3.90;69.50
33554;BME280;19885;42.208;24.952;2023-03-13T06:05:12;100598.94;;;4.06;69.74
33554;BME280;19885;42.208;24.952;2023-03-13T06:07:37;100581.41;;;4.18;68.89
33554;BME280;19885;42.208;24.952;2023-03-13T06:10:03;100586.16;;;4.28;70.24
33554;BME280;19885;42.208;24.952;2023-03-13T06:12:30;100592.13;;;4.27;69.62
33554;BME280;19885;42.208;24.952;2023-03-13T06:14:55;100599.38;;;4.36;68.61
33554;BME280;19885;42.208;24.952;2023-03-13T06:17:21;100602.28;;;4.44;69.25
33554;BME280;19885;42.208;24.952;2023-03-13T06:19:46;100607.03;;;4.54;69.45
33554;BME280;19885;42.208;24.952;2023-03-13T06:22:11;100603.25;;;4.66;68.63
33554;BME280;19885;42.208;24.952;2023-03-13T06:24:37;100599.97;;;4.50;68.98
33554;BME280;19885;42.208;24.952;2023-03-13T06:27:03;100574.81;;;4.65;68.77
33554;BME280;19885;42.208;24.952;2023-03-13T06:29:28;100607.81;;;4.92;66.65
33554;BME280;19885;42.208;24.952;2023-03-13T06:31:53;100610.81;;;5.03;66.79
33554;BME280;19885;42.208;24.952;2023-03-13T06:34:19;100587.75;;;5.07;65.96
33554;BME280;19885;42.208;24.952;2023-03-13T06:36:45;100595.91;;;5.18;65.27
33554;BME280;19885;42.208;24.952;2023-03-13T06:39:11;100604.22;;;5.32;65.90
33554;BME280;19885;42.208;24.952;2023-03-13T06:41:36;100611.69;;;5.24;65.01
33554;BME280;19885;42.208;24.952;2023-03-13T06:44:02;100610.75;;;5.44;65.00
33554;BME280;19885;42.208;24.952;2023-03-13T06:46:28;100608.03;;;5.63;65.47
33554;BME280;19885;42.208;24.952;2023-03-13T06:48:53;100602.97;;;6.11;64.34
33554;BME280;19885;42.208;24.952;2023-03-13T06:51:20;100609.44;;;6.00;63.89
33554;BME280;19885;42.208;24.952;2023-03-13T06:53:46;100600.75;;;6.45;63.76
33554;BME280;19885;42.208;24.952;2023-03-13T06:56:12;100597.44;;;6.99;61.83
33554;BME280;19885;42.208;24.952;2023-03-13T06:58:38;100605.00;;;7.47;60.11
33554;BME280;19885;42.208;24.952;2023-03-13T07:01:11;100593.44;;;8.23;58.16
33554;BME280;19885;42.208;24.952;2023-03-13T07:03:37;100597.19;;;8.66;57.49
33554;BME280;19885;42.208;24.952;2023-03-13T07:06:04;100602.41;;;9.00;55.03
33554;BME280;19885;42.208;24.952;2023-03-13T07:08:30;100599.06;;;9.41;54.43
33554;BME280;19885;42.208;24.952;2023-03-13T07:11:02;100549.66;;;9.04;53.21
33554;BME280;19885;42.208;24.952;2023-03-13T07:13:28;100598.66;;;10.00;51.66
33554;BME280;19885;42.208;24.952;2023-03-13T07:15:54;100596.72;;;10.32;50.67
33554;BME280;19885;42.208;24.952;2023-03-13T07:18:21;100587.19;;;10.33;50.88
33554;BME280;19885;42.208;24.952;2023-03-13T07:20:54;100544.63;;;10.31;50.28
33554;BME280;19885;42.208;24.952;2023-03-13T07:23:21;100600.88;;;10.67;49.86
33554;BME280;19885;42.208;24.952;2023-03-13T07:25:58;100599.94;;;10.64;49.51
33554;BME280;19885;42.208;24.952;2023-03-13T07:28:25;100590.81;;;10.41;50.92
33554;BME280;19885;42.208;24.952;2023-03-13T07:30:51;100598.19;;;10.63;51.02
33554;BME280;19885;42.208;24.952;2023-03-13T07:33:17;100589.78;;;10.79;49.54
33554;BME280;19885;42.208;24.952;2023-03-13T07:35:50;100589.53;;;11.16;48.00
33554;BME280;19885;42.208;24.952;2023-03-13T07:38:15;100589.97;;;11.45;46.38
33554;BME280;19885;42.208;24.952;2023-03-13T07:40:47;100536.41;;;11.11;46.32
33554;BME280;19885;42.208;24.952;2023-03-13T07:43:13;100562.69;;;11.23;46.75
33554;BME280;19885;42.208;24.952;2023-03-13T07:45:38;100594.16;;;11.32;48.48
33554;BME280;19885;42.208;24.952;2023-03-13T07:48:04;100589.25;;;11.54;47.59
33554;BME280;19885;42.208;24.952;2023-03-13T07:50:29;100583.88;;;12.03;45.84
33554;BME280;19885;42.208;24.952;2023-03-13T07:52:55;100595.63;;;12.40;45.95
33554;BME280;19885;42.208;24.952;2023-03-13T07:55:20;100548.44;;;12.29;43.93
33554;BME280;19885;42.208;24.952;2023-03-13T07:57:45;100529.16;;;12.15;43.72
33554;BME280;19885;42.208;24.952;2023-03-13T08:00:11;100584.38;;;12.50;45.33
33554;BME280;19885;42.208;24.952;2023-03-13T08:02:40;100588.91;;;12.63;43.79
33554;BME280;19885;42.208;24.952;2023-03-13T08:05:06;100579.34;;;12.65;44.07
33554;BME280;19885;42.208;24.952;2023-03-13T08:07:32;100578.34;;;12.55;44.53
33554;BME280;19885;42.208;24.952;2023-03-13T08:09:57;100580.22;;;12.68;43.51
33554;BME280;19885;42.208;24.952;2023-03-13T08:12:24;100578.63;;;12.81;43.35
33554;BME280;19885;42.208;24.952;2023-03-13T08:18:11;100561.50;;;13.18;43.20
33554;BME280;19885;42.208;24.952;2023-03-13T08:24:00;100554.28;;;12.91;42.77
33554;BME280;19885;42.208;24.952;2023-03-13T08:29:48;100505.28;;;12.67;43.47
33554;BME280;19885;42.208;24.952;2023-03-13T08:42:56;100550.53;;;13.76;40.08
33554;BME280;19885;42.208;24.952;2023-03-13T08:45:21;100558.38;;;13.73;40.36
33554;BME280;19885;42.208;24.952;2023-03-13T08:47:51;100552.38;;;13.98;40.48
33554;BME280;19885;42.208;24.952;2023-03-13T08:50:17;100557.72;;;14.28;40.79
33554;BME280;19885;42.208;24.952;2023-03-13T08:52:44;100556.03;;;14.46;38.82
33554;BME280;19885;42.208;24.952;2023-03-13T09:01:52;100547.34;;;14.80;38.88
33554;BME280;19885;42.208;24.952;2023-03-13T09:04:18;100554.34;;;14.69;36.59
33554;BME280;19885;42.208;24.952;2023-03-13T09:06:44;100551.38;;;13.75;38.40
33554;BME280;19885;42.208;24.952;2023-03-13T09:09:11;100559.56;;;14.61;38.57
33554;BME280;19885;42.208;24.952;2023-03-13T09:14:51;100516.72;;;14.65;33.97
33554;BME280;19885;42.208;24.952;2023-03-13T09:17:17;100559.59;;;15.05;34.89
33554;BME280;19885;42.208;24.952;2023-03-13T09:19:42;100502.72;;;14.89;34.01
33554;BME280;19885;42.208;24.952;2023-03-13T09:22:12;100543.81;;;15.37;34.40
33554;BME280;19885;42.208;24.952;2023-03-13T09:24:37;100496.59;;;15.04;33.32
33554;BME280;19885;42.208;24.952;2023-03-13T09:27:05;100539.47;;;14.83;33.21
33554;BME280;19885;42.208;24.952;2023-03-13T09:29:30;100536.84;;;14.80;34.73
33554;BME280;19885;42.208;24.952;2023-03-13T09:31:57;100550.81;;;15.15;36.28
33554;BME280;19885;42.208;24.952;2023-03-13T09:45:08;100528.63;;;16.20;34.22
33554;BME280;19885;42.208;24.952;2023-03-13T09:51:10;100527.22;;;14.73;34.05
33554;BME280;19885;42.208;24.952;2023-03-13T09:53:44;100520.16;;;15.50;32.93
33554;BME280;19885;42.208;24.952;2023-03-13T10:02:39;100501.28;;;16.49;31.83
33554;BME280;19885;42.208;24.952;2023-03-13T10:08:32;100489.50;;;15.36;34.13
33554;BME280;19885;42.208;24.952;2023-03-13T10:14:35;100499.25;;;14.67;27.29
33554;BME280;19885;42.208;24.952;2023-03-13T10:17:36;100432.72;;;14.08;28.32
33554;BME280;19885;42.208;24.952;2023-03-13T10:22:43;100487.59;;;15.94;27.67
33554;BME280;19885;42.208;24.952;2023-03-13T10:29:00;100490.38;;;15.42;24.12
33554;BME280;19885;42.208;24.952;2023-03-13T10:31:31;100474.44;;;15.94;24.13
33554;BME280;19885;42.208;24.952;2023-03-13T10:34:11;100474.06;;;16.54;22.54
33554;BME280;19885;42.208;24.952;2023-03-13T10:40:13;100431.84;;;14.93;24.77
33554;BME280;19885;42.208;24.952;2023-03-13T10:42:44;100471.25;;;14.62;23.70
33554;BME280;19885;42.208;24.952;2023-03-13T10:45:14;100473.78;;;15.22;28.86
33554;BME280;19885;42.208;24.952;2023-03-13T10:47:42;100466.59;;;15.82;24.55
33554;BME280;19885;42.208;24.952;2023-03-13T10:50:17;100460.63;;;15.48;27.10
33554;BME280;19885;42.208;24.952;2023-03-13T10:52:45;100435.88;;;15.99;27.73
33554;BME280;19885;42.208;24.952;2023-03-13T10:58:39;100449.72;;;16.22;29.96
33554;BME280;19885;42.208;24.952;2023-03-13T11:04:30;100389.72;;;15.37;27.04
33554;BME280;19885;42.208;24.952;2023-03-13T11:16:26;100426.66;;;14.69;27.62
33554;BME280;19885;42.208;24.952;2023-03-13T11:44:57;100379.47;;;16.36;27.93
33554;BME280;19885;42.208;24.952;2023-03-13T11:48:08;100390.44;;;16.86;27.60
33554;BME280;19885;42.208;24.952;2023-03-13T12:01:12;100356.00;;;16.12;27.60
33554;BME280;19885;42.208;24.952;2023-03-13T12:06:25;100340.56;;;15.66;27.25
33554;BME280;19885;42.208;24.952;2023-03-13T12:09:01;100353.88;;;15.24;26.49
33554;BME280;19885;42.208;24.952;2023-03-13T12:12:00;100356.69;;;14.68;29.10
33554;BME280;19885;42.208;24.952;2023-03-13T12:14:52;100348.84;;;14.58;30.80
33554;BME280;19885;42.208;24.952;2023-03-13T12:17:56;100346.81;;;15.44;28.49
33554;BME280;19885;42.208;24.952;2023-03-13T12:26:46;100345.59;;;16.01;27.34
33554;BME280;19885;42.208;24.952;2023-03-13T12:45:06;100327.53;;;15.48;27.90
33554;BME280;19885;42.208;24.952;2023-03-13T12:47:59;100320.44;;;15.64;31.08
33554;BME280;19885;42.208;24.952;2023-03-13T12:50:30;100329.31;;;15.37;25.84
33554;BME280;19885;42.208;24.952;2023-03-13T13:12:35;100311.25;;;14.09;31.62
33554;BME280;19885;42.208;24.952;2023-03-13T13:15:13;100310.38;;;14.40;29.06
33554;BME280;19885;42.208;24.952;2023-03-13T13:23:39;100309.41;;;14.86;29.94
33554;BME280;19885;42.208;24.952;2023-03-13T13:28:52;100305.03;;;14.84;28.59
33554;BME280;19885;42.208;24.952;2023-03-13T13:31:44;100306.53;;;15.45;29.89
33554;BME280;19885;42.208;24.952;2023-03-13T13:40:28;100289.41;;;14.48;30.18
33554;BME280;19885;42.208;24.952;2023-03-13T13:42:59;100291.97;;;14.76;30.10
33554;BME280;19885;42.208;24.952;2023-03-13T13:45:35;100285.59;;;15.27;27.87
33554;BME280;19885;42.208;24.952;2023-03-13T13:51:23;100283.69;;;15.59;26.25
33554;BME280;19885;42.208;24.952;2023-03-13T13:57:22;100281.91;;;15.58;26.88
33554;BME280;19885;42.208;24.952;2023-03-13T14:00:00;100288.53;;;14.53;27.82
33554;BME280;19885;42.208;24.952;2023-03-13T14:02:34;100285.88;;;14.55;29.65
33554;BME280;19885;42.208;24.952;2023-03-13T14:08:26;100278.06;;;14.12;29.67
33554;BME280;19885;42.208;24.952;2023-03-13T14:14:18;100274.34;;;14.99;28.51
33554;BME280;19885;42.208;24.952;2023-03-13T14:16:52;100271.78;;;14.87;30.60
33554;BME280;19885;42.208;24.952;2023-03-13T14:19:21;100274.38;;;14.96;28.67
33554;BME280;19885;42.208;24.952;2023-03-13T14:21:48;100263.94;;;14.83;28.22
33554;BME280;19885;42.208;24.952;2023-03-13T14:24:14;100267.56;;;14.41;30.14
33554;BME280;19885;42.208;24.952;2023-03-13T14:30:06;100271.97;;;13.71;29.33
33554;BME280;19885;42.208;24.952;2023-03-13T14:35:52;100245.78;;;13.51;31.59
33554;BME280;19885;42.208;24.952;2023-03-13T14:38:26;100272.75;;;13.25;29.41
33554;BME280;19885;42.208;24.952;2023-03-13T14:40:53;100265.69;;;12.98;29.91
33554;BME280;19885;42.208;24.952;2023-03-13T14:46:39;100253.63;;;13.80;30.16
33554;BME280;19885;42.208;24.952;2023-03-13T14:49:20;100250.13;;;13.99;30.16
33554;BME280;19885;42.208;24.952;2023-03-13T14:55:32;100256.25;;;13.71;32.17
33554;BME280;19885;42.208;24.952;2023-03-13T14:57:59;100215.19;;;13.75;30.34
33554;BME280;19885;42.208;24.952;2023-03-13T15:08:45;100250.13;;;13.42;29.48
33554;BME280;19885;42.208;24.952;2023-03-13T15:11:27;100270.19;;;13.40;30.24
33554;BME280;19885;42.208;24.952;2023-03-13T15:13:54;100264.06;;;13.35;30.96
33554;BME280;19885;42.208;24.952;2023-03-13T15:16:21;100266.63;;;13.18;30.69
33554;BME280;19885;42.208;24.952;2023-03-13T15:18:48;100268.38;;;13.13;31.15
33554;BME280;19885;42.208;24.952;2023-03-13T15:26:46;100264.97;;;13.44;30.03
33554;BME280;19885;42.208;24.952;2023-03-13T15:29:12;100265.84;;;13.57;32.41
33554;BME280;19885;42.208;24.952;2023-03-13T15:31:38;100201.09;;;12.82;31.72
33554;BME280;19885;42.208;24.952;2023-03-13T15:34:05;100266.63;;;13.15;31.53
33554;BME280;19885;42.208;24.952;2023-03-13T15:36:34;100251.78;;;13.05;32.31
33554;BME280;19885;42.208;24.952;2023-03-13T15:39:02;100274.47;;;13.20;32.43
33554;BME280;19885;42.208;24.952;2023-03-13T15:41:29;100263.19;;;13.30;33.06
33554;BME280;19885;42.208;24.952;2023-03-13T15:43:55;100269.34;;;13.53;32.93
33554;BME280;19885;42.208;24.952;2023-03-13T15:46:24;100268.41;;;13.24;33.29
33554;BME280;19885;42.208;24.952;2023-03-13T15:48:50;100271.91;;;13.30;32.39
33554;BME280;19885;42.208;24.952;2023-03-13T15:51:16;100285.03;;;13.53;34.11
33554;BME280;19885;42.208;24.952;2023-03-13T15:53:42;100275.41;;;13.32;32.90
33554;BME280;19885;42.208;24.952;2023-03-13T15:56:21;100277.09;;;13.08;34.12
33554;BME280;19885;42.208;24.952;2023-03-13T15:58:48;100286.63;;;12.97;34.34
33554;BME280;19885;42.208;24.952;2023-03-13T16:01:16;100269.22;;;13.11;34.35
33554;BME280;19885;42.208;24.952;2023-03-13T16:03:42;100278.69;;;12.86;33.68
33554;BME280;19885;42.208;24.952;2023-03-13T16:06:20;100285.66;;;12.76;34.83
33554;BME280;19885;42.208;24.952;2023-03-13T16:08:55;100277.72;;;12.60;34.42
33554;BME280;19885;42.208;24.952;2023-03-13T16:11:22;100270.81;;;12.75;35.94
33554;BME280;19885;42.208;24.952;2023-03-13T16:13:49;100290.00;;;12.71;34.59
33554;BME280;19885;42.208;24.952;2023-03-13T16:16:18;100287.28;;;12.59;34.39
33554;BME280;19885;42.208;24.952;2023-03-13T16:18:45;100289.81;;;12.40;34.48
33554;BME280;19885;42.208;24.952;2023-03-13T16:21:20;100293.22;;;12.30;34.20
33554;BME280;19885;42.208;24.952;2023-03-13T16:23:47;100290.56;;;12.27;34.78
33554;BME280;19885;42.208;24.952;2023-03-13T16:26:18;100301.88;;;12.23;34.76
33554;BME280;19885;42.208;24.952;2023-03-13T16:28:44;100294.88;;;12.18;35.09
33554;BME280;19885;42.208;24.952;2023-03-13T16:31:27;100279.91;;;11.93;35.13
33554;BME280;19885;42.208;24.952;2023-03-13T16:33:54;100256.00;;;11.51;34.74
33554;BME280;19885;42.208;24.952;2023-03-13T16:36:26;100278.94;;;11.81;35.34
33554;BME280;19885;42.208;24.952;2023-03-13T16:38:56;100290.91;;;11.64;35.00
33554;BME280;19885;42.208;24.952;2023-03-13T16:41:23;100298.94;;;11.82;37.51
33554;BME280;19885;42.208;24.952;2023-03-13T16:43:49;100304.16;;;11.82;35.68
33554;BME280;19885;42.208;24.952;2023-03-13T16:46:18;100313.59;;;11.68;35.54
33554;BME280;19885;42.208;24.952;2023-03-13T16:48:45;100305.69;;;11.62;36.31